Terminal Aerodrome Forecast
Issued by NWS

Home | Current Version | Previous Version | Text Only | Print | Product List | Glossary On
Versions: 1 2 3 4 5 6 7 8 9 10 11 12 13 14 15 16 17 18 19
670
FTUS43 KAPX 281931 AAA
TAFTVC
TAF AMD
KTVC 281931Z 2820/2918 00000KT P6SM BKN035
     FM282100 00000KT P6SM BKN060
     FM282300 26004KT P6SM SCT060
     FM291200 23008KT P6SM SCT090
     FM291600 24012G22KT P6SM VCSH SCT200=

USA.gov is the U.S. government's official web portal to all federal, state and local government web resources and services.